sensor_id;sensor_type;location;lat;lon;timestamp;P1;durP1;ratioP1;P2;durP2;ratioP2
75375;SDS011;63958;52.004;5.908;2022-12-24T00:01:38;25.35;;;4.78;;
75375;SDS011;63958;52.004;5.908;2022-12-24T00:04:07;18.17;;;4.67;;
75375;SDS011;63958;52.004;5.908;2022-12-24T00:06:36;16.30;;;4.05;;
75375;SDS011;63958;52.004;5.908;2022-12-24T00:09:05;9.57;;;2.88;;
75375;SDS011;63958;52.004;5.908;2022-12-24T00:11:34;12.55;;;2.53;;
75375;SDS011;63958;52.004;5.908;2022-12-24T00:14:03;10.82;;;2.75;;
75375;SDS011;63958;52.004;5.908;2022-12-24T00:16:32;14.65;;;3.00;;
75375;SDS011;63958;52.004;5.908;2022-12-24T00:19:04;20.70;;;4.55;;
75375;SDS011;63958;52.004;5.908;2022-12-24T00:21:32;14.10;;;3.77;;
75375;SDS011;63958;52.004;5.908;2022-12-24T00:24:01;16.27;;;4.00;;
75375;SDS011;63958;52.004;5.908;2022-12-24T00:26:31;14.10;;;2.83;;
75375;SDS011;63958;52.004;5.908;2022-12-24T00:29:00;18.17;;;3.78;;
75375;SDS011;63958;52.004;5.908;2022-12-24T00:31:29;16.88;;;3.83;;
75375;SDS011;63958;52.004;5.908;2022-12-24T00:33:58;16.70;;;4.05;;
75375;SDS011;63958;52.004;5.908;2022-12-24T00:36:30;19.00;;;3.88;;
75375;SDS011;63958;52.004;5.908;2022-12-24T00:38:59;14.10;;;3.03;;
75375;SDS011;63958;52.004;5.908;2022-12-24T00:41:28;21.75;;;3.75;;
75375;SDS011;63958;52.004;5.908;2022-12-24T00:43:57;15.18;;;3.28;;
75375;SDS011;63958;52.004;5.908;2022-12-24T00:46:28;17.00;;;3.45;;
75375;SDS011;63958;52.004;5.908;2022-12-24T00:48:58;25.98;;;5.55;;
75375;SDS011;63958;52.004;5.908;2022-12-24T00:51:30;18.05;;;3.50;;
75375;SDS011;63958;52.004;5.908;2022-12-24T00:54:00;24.52;;;4.57;;
75375;SDS011;63958;52.004;5.908;2022-12-24T00:56:29;12.65;;;3.30;;
75375;SDS011;63958;52.004;5.908;2022-12-24T00:58:58;16.13;;;3.90;;
75375;SDS011;63958;52.004;5.908;2022-12-24T01:01:27;20.65;;;5.53;;
75375;SDS011;63958;52.004;5.908;2022-12-24T01:03:56;14.55;;;4.43;;
75375;SDS011;63958;52.004;5.908;2022-12-24T01:06:40;13.05;;;3.25;;
75375;SDS011;63958;52.004;5.908;2022-12-24T01:09:09;18.83;;;3.27;;
75375;SDS011;63958;52.004;5.908;2022-12-24T01:11:38;22.13;;;5.03;;
75375;SDS011;63958;52.004;5.908;2022-12-24T01:14:07;15.68;;;4.00;;
75375;SDS011;63958;52.004;5.908;2022-12-24T01:16:36;20.90;;;3.78;;
75375;SDS011;63958;52.004;5.908;2022-12-24T01:19:05;14.32;;;3.50;;
75375;SDS011;63958;52.004;5.908;2022-12-24T01:21:33;16.58;;;4.10;;
75375;SDS011;63958;52.004;5.908;2022-12-24T01:24:05;15.18;;;3.00;;
75375;SDS011;63958;52.004;5.908;2022-12-24T01:26:34;15.95;;;3.88;;
75375;SDS011;63958;52.004;5.908;2022-12-24T01:29:03;30.08;;;5.63;;
75375;SDS011;63958;52.004;5.908;2022-12-24T01:31:32;24.17;;;3.80;;
75375;SDS011;63958;52.004;5.908;2022-12-24T01:34:01;15.40;;;4.13;;
75375;SDS011;63958;52.004;5.908;2022-12-24T01:36:30;21.27;;;4.10;;
75375;SDS011;63958;52.004;5.908;2022-12-24T01:38:59;17.63;;;4.07;;
75375;SDS011;63958;52.004;5.908;2022-12-24T01:41:31;20.27;;;4.38;;
75375;SDS011;63958;52.004;5.908;2022-12-24T01:44:19;18.27;;;4.88;;
75375;SDS011;63958;52.004;5.908;2022-12-24T01:46:51;19.15;;;3.95;;
75375;SDS011;63958;52.004;5.908;2022-12-24T01:51:53;18.60;;;4.28;;
75375;SDS011;63958;52.004;5.908;2022-12-24T01:54:27;14.02;;;4.40;;
75375;SDS011;63958;52.004;5.908;2022-12-24T01:57:02;22.17;;;4.25;;
75375;SDS011;63958;52.004;5.908;2022-12-24T01:59:35;16.90;;;3.90;;
75375;SDS011;63958;52.004;5.908;2022-12-24T02:02:06;20.88;;;3.70;;
75375;SDS011;63958;52.004;5.908;2022-12-24T02:04:35;20.33;;;4.50;;
75375;SDS011;63958;52.004;5.908;2022-12-24T02:07:09;18.40;;;3.88;;
75375;SDS011;63958;52.004;5.908;2022-12-24T02:09:38;14.73;;;3.22;;
75375;SDS011;63958;52.004;5.908;2022-12-24T02:12:09;17.55;;;4.53;;
75375;SDS011;63958;52.004;5.908;2022-12-24T02:14:38;11.98;;;3.45;;
75375;SDS011;63958;52.004;5.908;2022-12-24T02:17:09;20.30;;;3.67;;
75375;SDS011;63958;52.004;5.908;2022-12-24T02:22:53;19.70;;;4.57;;
75375;SDS011;63958;52.004;5.908;2022-12-24T02:25:40;17.38;;;4.05;;
75375;SDS011;63958;52.004;5.908;2022-12-24T02:28:30;11.85;;;3.03;;
75375;SDS011;63958;52.004;5.908;2022-12-24T02:31:17;17.23;;;3.08;;
75375;SDS011;63958;52.004;5.908;2022-12-24T02:33:52;14.65;;;3.03;;
75375;SDS011;63958;52.004;5.908;2022-12-24T02:36:27;12.38;;;2.92;;
75375;SDS011;63958;52.004;5.908;2022-12-24T02:39:00;20.10;;;3.53;;
75375;SDS011;63958;52.004;5.908;2022-12-24T02:41:32;17.27;;;3.42;;
75375;SDS011;63958;52.004;5.908;2022-12-24T02:44:14;17.05;;;3.25;;
75375;SDS011;63958;52.004;5.908;2022-12-24T02:46:47;14.63;;;3.60;;
75375;SDS011;63958;52.004;5.908;2022-12-24T02:49:18;10.65;;;3.13;;
75375;SDS011;63958;52.004;5.908;2022-12-24T02:51:47;10.20;;;2.40;;
75375;SDS011;63958;52.004;5.908;2022-12-24T02:54:16;11.25;;;3.13;;
75375;SDS011;63958;52.004;5.908;2022-12-24T02:56:49;19.35;;;4.57;;
75375;SDS011;63958;52.004;5.908;2022-12-24T02:59:38;8.90;;;2.50;;
75375;SDS011;63958;52.004;5.908;2022-12-24T03:02:25;15.77;;;3.08;;
75375;SDS011;63958;52.004;5.908;2022-12-24T03:05:09;11.90;;;2.30;;
75375;SDS011;63958;52.004;5.908;2022-12-24T03:07:49;12.77;;;2.63;;
75375;SDS011;63958;52.004;5.908;2022-12-24T03:10:29;10.75;;;2.92;;
75375;SDS011;63958;52.004;5.908;2022-12-24T03:13:03;12.95;;;2.88;;
75375;SDS011;63958;52.004;5.908;2022-12-24T03:15:34;10.98;;;2.30;;
75375;SDS011;63958;52.004;5.908;2022-12-24T03:18:08;15.23;;;2.90;;
75375;SDS011;63958;52.004;5.908;2022-12-24T03:20:42;10.45;;;2.90;;
75375;SDS011;63958;52.004;5.908;2022-12-24T03:23:13;16.60;;;4.00;;
75375;SDS011;63958;52.004;5.908;2022-12-24T03:25:42;11.52;;;2.97;;
75375;SDS011;63958;52.004;5.908;2022-12-24T03:28:13;20.48;;;3.92;;
75375;SDS011;63958;52.004;5.908;2022-12-24T03:30:44;10.48;;;3.33;;
75375;SDS011;63958;52.004;5.908;2022-12-24T03:33:18;8.80;;;2.35;;
75375;SDS011;63958;52.004;5.908;2022-12-24T03:35:47;14.27;;;3.53;;
75375;SDS011;63958;52.004;5.908;2022-12-24T03:38:16;13.10;;;3.22;;
75375;SDS011;63958;52.004;5.908;2022-12-24T03:40:45;12.18;;;2.38;;
75375;SDS011;63958;52.004;5.908;2022-12-24T03:43:14;13.20;;;2.70;;
75375;SDS011;63958;52.004;5.908;2022-12-24T03:45:43;12.73;;;2.78;;
75375;SDS011;63958;52.004;5.908;2022-12-24T03:48:12;9.35;;;2.55;;
75375;SDS011;63958;52.004;5.908;2022-12-24T03:50:44;20.13;;;4.00;;
75375;SDS011;63958;52.004;5.908;2022-12-24T03:53:13;12.27;;;2.83;;
75375;SDS011;63958;52.004;5.908;2022-12-24T03:55:42;14.73;;;4.25;;
75375;SDS011;63958;52.004;5.908;2022-12-24T03:58:10;9.23;;;2.78;;
75375;SDS011;63958;52.004;5.908;2022-12-24T04:00:39;6.45;;;2.10;;
75375;SDS011;63958;52.004;5.908;2022-12-24T04:03:08;13.32;;;3.33;;
75375;SDS011;63958;52.004;5.908;2022-12-24T04:05:37;12.20;;;2.78;;
75375;SDS011;63958;52.004;5.908;2022-12-24T04:08:09;12.80;;;3.00;;
75375;SDS011;63958;52.004;5.908;2022-12-24T04:10:38;12.70;;;3.43;;
75375;SDS011;63958;52.004;5.908;2022-12-24T04:13:07;18.83;;;3.75;;
75375;SDS011;63958;52.004;5.908;2022-12-24T04:15:35;12.82;;;2.45;;
75375;SDS011;63958;52.004;5.908;2022-12-24T04:18:04;10.18;;;3.42;;
75375;SDS011;63958;52.004;5.908;2022-12-24T04:20:33;8.73;;;2.08;;
75375;SDS011;63958;52.004;5.908;2022-12-24T04:23:02;7.95;;;2.50;;
75375;SDS011;63958;52.004;5.908;2022-12-24T04:25:34;16.20;;;4.25;;
75375;SDS011;63958;52.004;5.908;2022-12-24T04:28:04;17.38;;;4.18;;
75375;SDS011;63958;52.004;5.908;2022-12-24T04:30:33;13.73;;;3.13;;
75375;SDS011;63958;52.004;5.908;2022-12-24T04:33:02;20.02;;;3.40;;
75375;SDS011;63958;52.004;5.908;2022-12-24T04:35:31;13.55;;;3.72;;
75375;SDS011;63958;52.004;5.908;2022-12-24T04:38:00;16.15;;;3.03;;
75375;SDS011;63958;52.004;5.908;2022-12-24T04:40:29;9.30;;;2.47;;
75375;SDS011;63958;52.004;5.908;2022-12-24T04:43:01;8.90;;;2.70;;
75375;SDS011;63958;52.004;5.908;2022-12-24T04:45:30;13.45;;;3.47;;
75375;SDS011;63958;52.004;5.908;2022-12-24T04:48:00;17.20;;;3.85;;
75375;SDS011;63958;52.004;5.908;2022-12-24T04:50:28;17.85;;;4.05;;
75375;SDS011;63958;52.004;5.908;2022-12-24T04:52:57;12.45;;;3.05;;
75375;SDS011;63958;52.004;5.908;2022-12-24T04:55:26;16.33;;;3.85;;
75375;SDS011;63958;52.004;5.908;2022-12-24T04:57:55;18.35;;;4.20;;
75375;SDS011;63958;52.004;5.908;2022-12-24T05:00:27;17.45;;;3.80;;
75375;SDS011;63958;52.004;5.908;2022-12-24T05:02:56;13.33;;;3.53;;
75375;SDS011;63958;52.004;5.908;2022-12-24T05:05:25;14.55;;;3.40;;
75375;SDS011;63958;52.004;5.908;2022-12-24T05:07:53;18.90;;;4.00;;
75375;SDS011;63958;52.004;5.908;2022-12-24T05:10:22;15.52;;;4.57;;
75375;SDS011;63958;52.004;5.908;2022-12-24T05:12:52;13.82;;;4.07;;
75375;SDS011;63958;52.004;5.908;2022-12-24T05:15:20;12.13;;;3.45;;
75375;SDS011;63958;52.004;5.908;2022-12-24T05:17:52;19.00;;;3.58;;
75375;SDS011;63958;52.004;5.908;2022-12-24T05:20:22;18.65;;;4.25;;
75375;SDS011;63958;52.004;5.908;2022-12-24T05:22:52;14.45;;;4.43;;
75375;SDS011;63958;52.004;5.908;2022-12-24T05:25:35;11.35;;;3.03;;
75375;SDS011;63958;52.004;5.908;2022-12-24T05:28:18;12.32;;;3.70;;
75375;SDS011;63958;52.004;5.908;2022-12-24T05:30:47;14.95;;;3.70;;
75375;SDS011;63958;52.004;5.908;2022-12-24T05:33:19;14.45;;;2.92;;
75375;SDS011;63958;52.004;5.908;2022-12-24T05:35:49;11.38;;;3.30;;
75375;SDS011;63958;52.004;5.908;2022-12-24T05:38:18;16.58;;;3.55;;
75375;SDS011;63958;52.004;5.908;2022-12-24T05:40:47;14.43;;;2.88;;
75375;SDS011;63958;52.004;5.908;2022-12-24T05:43:16;12.02;;;3.13;;
75375;SDS011;63958;52.004;5.908;2022-12-24T05:45:45;14.32;;;3.60;;
75375;SDS011;63958;52.004;5.908;2022-12-24T05:48:14;15.00;;;3.75;;
75375;SDS011;63958;52.004;5.908;2022-12-24T05:50:45;10.88;;;3.03;;
75375;SDS011;63958;52.004;5.908;2022-12-24T05:53:14;17.20;;;3.67;;
75375;SDS011;63958;52.004;5.908;2022-12-24T05:55:43;16.30;;;4.68;;
75375;SDS011;63958;52.004;5.908;2022-12-24T05:58:12;11.10;;;2.92;;
75375;SDS011;63958;52.004;5.908;2022-12-24T06:00:41;12.38;;;3.17;;
75375;SDS011;63958;52.004;5.908;2022-12-24T06:03:10;13.10;;;3.28;;
75375;SDS011;63958;52.004;5.908;2022-12-24T06:05:39;12.95;;;3.22;;
75375;SDS011;63958;52.004;5.908;2022-12-24T06:08:11;14.90;;;3.83;;
75375;SDS011;63958;52.004;5.908;2022-12-24T06:10:40;15.23;;;4.20;;
75375;SDS011;63958;52.004;5.908;2022-12-24T06:13:08;19.98;;;5.70;;
75375;SDS011;63958;52.004;5.908;2022-12-24T06:15:37;14.05;;;3.30;;
75375;SDS011;63958;52.004;5.908;2022-12-24T06:18:06;15.32;;;3.63;;
75375;SDS011;63958;52.004;5.908;2022-12-24T06:20:35;14.55;;;3.63;;
75375;SDS011;63958;52.004;5.908;2022-12-24T06:23:04;12.40;;;3.58;;
75375;SDS011;63958;52.004;5.908;2022-12-24T06:25:36;14.35;;;3.72;;
75375;SDS011;63958;52.004;5.908;2022-12-24T06:28:04;17.53;;;4.07;;
75375;SDS011;63958;52.004;5.908;2022-12-24T06:30:33;17.13;;;4.55;;
75375;SDS011;63958;52.004;5.908;2022-12-24T06:33:02;24.83;;;4.55;;
75375;SDS011;63958;52.004;5.908;2022-12-24T06:35:32;17.55;;;3.30;;
75375;SDS011;63958;52.004;5.908;2022-12-24T06:38:01;15.85;;;4.60;;
75375;SDS011;63958;52.004;5.908;2022-12-24T06:40:30;22.85;;;4.72;;
75375;SDS011;63958;52.004;5.908;2022-12-24T06:43:01;9.05;;;2.95;;
75375;SDS011;63958;52.004;5.908;2022-12-24T06:45:30;19.03;;;4.03;;
75375;SDS011;63958;52.004;5.908;2022-12-24T06:47:59;17.88;;;3.83;;
75375;SDS011;63958;52.004;5.908;2022-12-24T06:50:28;20.23;;;4.05;;
75375;SDS011;63958;52.004;5.908;2022-12-24T06:52:58;17.35;;;4.00;;
75375;SDS011;63958;52.004;5.908;2022-12-24T06:55:27;14.05;;;3.33;;
75375;SDS011;63958;52.004;5.908;2022-12-24T06:57:56;13.82;;;3.42;;
75375;SDS011;63958;52.004;5.908;2022-12-24T07:00:27;11.50;;;3.10;;
75375;SDS011;63958;52.004;5.908;2022-12-24T07:02:56;16.10;;;5.15;;
75375;SDS011;63958;52.004;5.908;2022-12-24T07:05:25;24.55;;;5.97;;
75375;SDS011;63958;52.004;5.908;2022-12-24T07:07:55;13.18;;;3.47;;
75375;SDS011;63958;52.004;5.908;2022-12-24T07:10:24;18.10;;;4.93;;
75375;SDS011;63958;52.004;5.908;2022-12-24T07:12:53;8.55;;;3.50;;
75375;SDS011;63958;52.004;5.908;2022-12-24T07:15:22;16.98;;;4.68;;
75375;SDS011;63958;52.004;5.908;2022-12-24T07:17:53;17.35;;;4.85;;
75375;SDS011;63958;52.004;5.908;2022-12-24T07:20:22;17.67;;;4.30;;
75375;SDS011;63958;52.004;5.908;2022-12-24T07:22:51;22.75;;;5.78;;
75375;SDS011;63958;52.004;5.908;2022-12-24T07:25:20;16.73;;;4.32;;
75375;SDS011;63958;52.004;5.908;2022-12-24T07:27:49;15.35;;;4.40;;
75375;SDS011;63958;52.004;5.908;2022-12-24T07:30:18;14.65;;;3.63;;
75375;SDS011;63958;52.004;5.908;2022-12-24T07:32:47;13.07;;;3.05;;
75375;SDS011;63958;52.004;5.908;2022-12-24T07:35:18;16.38;;;5.13;;
75375;SDS011;63958;52.004;5.908;2022-12-24T07:37:47;10.55;;;3.22;;
75375;SDS011;63958;52.004;5.908;2022-12-24T07:40:16;11.57;;;3.53;;
75375;SDS011;63958;52.004;5.908;2022-12-24T07:42:45;10.20;;;3.25;;
75375;SDS011;63958;52.004;5.908;2022-12-24T07:45:14;15.48;;;3.90;;
75375;SDS011;63958;52.004;5.908;2022-12-24T07:47:43;11.88;;;3.58;;
75375;SDS011;63958;52.004;5.908;2022-12-24T07:50:12;14.57;;;4.03;;
75375;SDS011;63958;52.004;5.908;2022-12-24T07:52:44;12.85;;;4.80;;
75375;SDS011;63958;52.004;5.908;2022-12-24T07:55:13;16.15;;;4.80;;
75375;SDS011;63958;52.004;5.908;2022-12-24T07:57:42;14.65;;;3.45;;
75375;SDS011;63958;52.004;5.908;2022-12-24T08:00:11;14.93;;;3.70;;
75375;SDS011;63958;52.004;5.908;2022-12-24T08:02:40;13.68;;;4.07;;
75375;SDS011;63958;52.004;5.908;2022-12-24T08:05:09;17.40;;;4.50;;
75375;SDS011;63958;52.004;5.908;2022-12-24T08:07:38;12.68;;;3.33;;
75375;SDS011;63958;52.004;5.908;2022-12-24T08:10:10;18.10;;;4.00;;
75375;SDS011;63958;52.004;5.908;2022-12-24T08:12:39;11.60;;;3.65;;
75375;SDS011;63958;52.004;5.908;2022-12-24T08:15:08;9.27;;;3.20;;
75375;SDS011;63958;52.004;5.908;2022-12-24T08:17:37;15.32;;;3.35;;
75375;SDS011;63958;52.004;5.908;2022-12-24T08:20:07;19.42;;;4.20;;
75375;SDS011;63958;52.004;5.908;2022-12-24T08:22:36;20.38;;;4.95;;
75375;SDS011;63958;52.004;5.908;2022-12-24T08:25:06;14.60;;;3.92;;
75375;SDS011;63958;52.004;5.908;2022-12-24T08:27:38;14.13;;;4.10;;
75375;SDS011;63958;52.004;5.908;2022-12-24T08:30:08;12.27;;;3.07;;
75375;SDS011;63958;52.004;5.908;2022-12-24T08:32:38;21.67;;;3.72;;
75375;SDS011;63958;52.004;5.908;2022-12-24T08:35:07;17.58;;;3.90;;
75375;SDS011;63958;52.004;5.908;2022-12-24T08:37:36;12.98;;;3.80;;
75375;SDS011;63958;52.004;5.908;2022-12-24T08:40:06;19.02;;;4.20;;
75375;SDS011;63958;52.004;5.908;2022-12-24T08:42:39;20.73;;;4.82;;
75375;SDS011;63958;52.004;5.908;2022-12-24T08:45:08;20.00;;;4.53;;
75375;SDS011;63958;52.004;5.908;2022-12-24T08:47:38;20.58;;;4.88;;
75375;SDS011;63958;52.004;5.908;2022-12-24T08:50:07;22.20;;;4.75;;
75375;SDS011;63958;52.004;5.908;2022-12-24T08:52:37;27.50;;;5.53;;
75375;SDS011;63958;52.004;5.908;2022-12-24T08:55:07;12.60;;;4.10;;
75375;SDS011;63958;52.004;5.908;2022-12-24T08:57:38;20.00;;;4.82;;
75375;SDS011;63958;52.004;5.908;2022-12-24T09:00:08;14.77;;;3.83;;
75375;SDS011;63958;52.004;5.908;2022-12-24T09:02:39;15.17;;;3.70;;
75375;SDS011;63958;52.004;5.908;2022-12-24T09:05:08;15.80;;;4.55;;
75375;SDS011;63958;52.004;5.908;2022-12-24T09:07:37;14.25;;;3.42;;
75375;SDS011;63958;52.004;5.908;2022-12-24T09:10:06;24.65;;;6.35;;
75375;SDS011;63958;52.004;5.908;2022-12-24T09:12:39;22.08;;;4.57;;
75375;SDS011;63958;52.004;5.908;2022-12-24T09:15:09;17.88;;;3.58;;
75375;SDS011;63958;52.004;5.908;2022-12-24T09:17:39;16.70;;;5.15;;
75375;SDS011;63958;52.004;5.908;2022-12-24T09:20:09;27.55;;;5.25;;
75375;SDS011;63958;52.004;5.908;2022-12-24T09:22:38;19.77;;;4.63;;
75375;SDS011;63958;52.004;5.908;2022-12-24T09:25:08;15.32;;;4.93;;
75375;SDS011;63958;52.004;5.908;2022-12-24T09:27:40;23.48;;;5.13;;
75375;SDS011;63958;52.004;5.908;2022-12-24T09:30:09;24.20;;;5.97;;
75375;SDS011;63958;52.004;5.908;2022-12-24T09:32:39;18.95;;;5.75;;
75375;SDS011;63958;52.004;5.908;2022-12-24T09:35:08;12.55;;;4.40;;
75375;SDS011;63958;52.004;5.908;2022-12-24T09:37:37;14.75;;;4.55;;
75375;SDS011;63958;52.004;5.908;2022-12-24T09:40:08;20.58;;;4.75;;
75375;SDS011;63958;52.004;5.908;2022-12-24T09:42:52;18.33;;;4.78;;
75375;SDS011;63958;52.004;5.908;2022-12-24T09:47:56;13.15;;;4.05;;
75375;SDS011;63958;52.004;5.908;2022-12-24T09:50:31;16.10;;;3.60;;
75375;SDS011;63958;52.004;5.908;2022-12-24T09:53:10;12.93;;;3.50;;
75375;SDS011;63958;52.004;5.908;2022-12-24T09:55:46;13.90;;;4.00;;
75375;SDS011;63958;52.004;5.908;2022-12-24T09:58:22;12.95;;;4.32;;
75375;SDS011;63958;52.004;5.908;2022-12-24T10:00:55;16.88;;;4.55;;
75375;SDS011;63958;52.004;5.908;2022-12-24T10:03:25;20.42;;;6.40;;
75375;SDS011;63958;52.004;5.908;2022-12-24T10:06:00;11.93;;;3.90;;
75375;SDS011;63958;52.004;5.908;2022-12-24T10:08:37;22.45;;;4.85;;
75375;SDS011;63958;52.004;5.908;2022-12-24T10:11:16;14.00;;;3.28;;
75375;SDS011;63958;52.004;5.908;2022-12-24T10:14:01;14.32;;;3.60;;
75375;SDS011;63958;52.004;5.908;2022-12-24T10:16:40;15.38;;;3.45;;
75375;SDS011;63958;52.004;5.908;2022-12-24T10:19:17;10.43;;;3.28;;
75375;SDS011;63958;52.004;5.908;2022-12-24T10:21:59;19.20;;;5.13;;
75375;SDS011;63958;52.004;5.908;2022-12-24T10:24:36;18.67;;;4.72;;
75375;SDS011;63958;52.004;5.908;2022-12-24T10:27:12;14.70;;;3.92;;
75375;SDS011;63958;52.004;5.908;2022-12-24T10:29:46;11.98;;;2.83;;
75375;SDS011;63958;52.004;5.908;2022-12-24T10:32:19;17.02;;;4.07;;
75375;SDS011;63958;52.004;5.908;2022-12-24T10:34:51;15.43;;;4.47;;
75375;SDS011;63958;52.004;5.908;2022-12-24T10:37:27;17.23;;;4.88;;
75375;SDS011;63958;52.004;5.908;2022-12-24T10:39:58;13.45;;;4.25;;
75375;SDS011;63958;52.004;5.908;2022-12-24T10:42:31;11.77;;;3.00;;
75375;SDS011;63958;52.004;5.908;2022-12-24T10:45:12;11.57;;;3.03;;
75375;SDS011;63958;52.004;5.908;2022-12-24T10:47:47;9.95;;;3.00;;
75375;SDS011;63958;52.004;5.908;2022-12-24T10:50:22;13.60;;;2.83;;
75375;SDS011;63958;52.004;5.908;2022-12-24T10:52:59;10.63;;;2.53;;
75375;SDS011;63958;52.004;5.908;2022-12-24T10:55:35;13.38;;;3.30;;
75375;SDS011;63958;52.004;5.908;2022-12-24T10:58:10;22.60;;;5.33;;
75375;SDS011;63958;52.004;5.908;2022-12-24T11:00:47;16.65;;;4.95;;
75375;SDS011;63958;52.004;5.908;2022-12-24T11:03:21;16.75;;;4.07;;
75375;SDS011;63958;52.004;5.908;2022-12-24T11:06:03;18.35;;;3.70;;
75375;SDS011;63958;52.004;5.908;2022-12-24T11:08:38;13.70;;;3.72;;
75375;SDS011;63958;52.004;5.908;2022-12-24T11:11:10;20.73;;;4.45;;
75375;SDS011;63958;52.004;5.908;2022-12-24T11:13:42;13.52;;;3.22;;
75375;SDS011;63958;52.004;5.908;2022-12-24T11:16:19;15.13;;;3.83;;
75375;SDS011;63958;52.004;5.908;2022-12-24T11:18:53;15.02;;;3.72;;
75375;SDS011;63958;52.004;5.908;2022-12-24T11:21:25;15.60;;;3.72;;
75375;SDS011;63958;52.004;5.908;2022-12-24T11:23:58;16.20;;;3.72;;
75375;SDS011;63958;52.004;5.908;2022-12-24T11:26:32;12.75;;;4.10;;
75375;SDS011;63958;52.004;5.908;2022-12-24T11:29:03;13.73;;;3.58;;
75375;SDS011;63958;52.004;5.908;2022-12-24T11:31:42;12.65;;;4.15;;
75375;SDS011;63958;52.004;5.908;2022-12-24T11:34:21;12.23;;;3.15;;
75375;SDS011;63958;52.004;5.908;2022-12-24T11:36:53;15.65;;;4.70;;
75375;SDS011;63958;52.004;5.908;2022-12-24T11:39:37;13.48;;;3.75;;
75375;SDS011;63958;52.004;5.908;2022-12-24T11:42:15;8.85;;;2.38;;
75375;SDS011;63958;52.004;5.908;2022-12-24T11:44:52;9.88;;;2.28;;
75375;SDS011;63958;52.004;5.908;2022-12-24T11:47:33;8.73;;;2.40;;
75375;SDS011;63958;52.004;5.908;2022-12-24T11:50:23;13.27;;;3.38;;
75375;SDS011;63958;52.004;5.908;2022-12-24T11:52:56;12.10;;;3.10;;
75375;SDS011;63958;52.004;5.908;2022-12-24T11:55:38;8.05;;;2.60;;
75375;SDS011;63958;52.004;5.908;2022-12-24T11:58:15;10.85;;;2.70;;
75375;SDS011;63958;52.004;5.908;2022-12-24T12:00:50;12.77;;;4.03;;
75375;SDS011;63958;52.004;5.908;2022-12-24T12:03:29;11.63;;;2.90;;
75375;SDS011;63958;52.004;5.908;2022-12-24T12:06:03;17.50;;;4.22;;
75375;SDS011;63958;52.004;5.908;2022-12-24T12:08:44;14.32;;;3.75;;
75375;SDS011;63958;52.004;5.908;2022-12-24T12:11:14;19.75;;;3.83;;
75375;SDS011;63958;52.004;5.908;2022-12-24T12:13:43;12.85;;;3.08;;
75375;SDS011;63958;52.004;5.908;2022-12-24T12:16:15;9.48;;;2.42;;
75375;SDS011;63958;52.004;5.908;2022-12-24T12:18:51;16.13;;;2.97;;
75375;SDS011;63958;52.004;5.908;2022-12-24T12:21:25;14.65;;;3.90;;
75375;SDS011;63958;52.004;5.908;2022-12-24T12:24:02;8.57;;;2.53;;
75375;SDS011;63958;52.004;5.908;2022-12-24T12:26:34;12.57;;;3.42;;
75375;SDS011;63958;52.004;5.908;2022-12-24T12:29:04;10.65;;;3.17;;
75375;SDS011;63958;52.004;5.908;2022-12-24T12:31:46;10.73;;;3.10;;
75375;SDS011;63958;52.004;5.908;2022-12-24T12:34:19;11.68;;;2.90;;
75375;SDS011;63958;52.004;5.908;2022-12-24T12:36:52;8.98;;;2.38;;
75375;SDS011;63958;52.004;5.908;2022-12-24T12:39:24;9.25;;;2.97;;
75375;SDS011;63958;52.004;5.908;2022-12-24T12:41:55;12.90;;;3.30;;
75375;SDS011;63958;52.004;5.908;2022-12-24T12:44:37;11.00;;;2.15;;
75375;SDS011;63958;52.004;5.908;2022-12-24T12:50:21;10.48;;;2.85;;
75375;SDS011;63958;52.004;5.908;2022-12-24T12:52:57;8.18;;;2.25;;
75375;SDS011;63958;52.004;5.908;2022-12-24T12:58:15;12.40;;;3.15;;
75375;SDS011;63958;52.004;5.908;2022-12-24T13:00:50;12.63;;;3.63;;
75375;SDS011;63958;52.004;5.908;2022-12-24T13:06:48;8.82;;;2.20;;
75375;SDS011;63958;52.004;5.908;2022-12-24T13:09:38;18.90;;;3.60;;
75375;SDS011;63958;52.004;5.908;2022-12-24T13:12:27;13.63;;;4.00;;
75375;SDS011;63958;52.004;5.908;2022-12-24T13:15:28;11.82;;;3.22;;
75375;SDS011;63958;52.004;5.908;2022-12-24T13:18:25;20.90;;;3.67;;
75375;SDS011;63958;52.004;5.908;2022-12-24T13:21:11;11.77;;;2.53;;
75375;SDS011;63958;52.004;5.908;2022-12-24T13:23:46;13.70;;;3.45;;
75375;SDS011;63958;52.004;5.908;2022-12-24T13:26:15;10.65;;;2.65;;
75375;SDS011;63958;52.004;5.908;2022-12-24T13:28:45;12.82;;;3.00;;
75375;SDS011;63958;52.004;5.908;2022-12-24T13:31:27;12.82;;;3.50;;
75375;SDS011;63958;52.004;5.908;2022-12-24T13:34:00;10.52;;;2.83;;
75375;SDS011;63958;52.004;5.908;2022-12-24T13:45:45;10.27;;;2.30;;
75375;SDS011;63958;52.004;5.908;2022-12-24T13:48:29;6.13;;;1.65;;
75375;SDS011;63958;52.004;5.908;2022-12-24T13:51:00;7.13;;;1.92;;
75375;SDS011;63958;52.004;5.908;2022-12-24T13:53:46;12.48;;;2.33;;
75375;SDS011;63958;52.004;5.908;2022-12-24T13:56:20;12.73;;;2.65;;
75375;SDS011;63958;52.004;5.908;2022-12-24T14:01:50;13.15;;;3.08;;
75375;SDS011;63958;52.004;5.908;2022-12-24T14:04:23;10.07;;;2.75;;
75375;SDS011;63958;52.004;5.908;2022-12-24T14:06:56;5.15;;;1.77;;
75375;SDS011;63958;52.004;5.908;2022-12-24T14:14:45;8.25;;;1.73;;
75375;SDS011;63958;52.004;5.908;2022-12-24T14:17:20;6.80;;;1.83;;
75375;SDS011;63958;52.004;5.908;2022-12-24T14:19:51;5.47;;;1.77;;
75375;SDS011;63958;52.004;5.908;2022-12-24T14:22:25;5.32;;;1.70;;
75375;SDS011;63958;52.004;5.908;2022-12-24T14:24:57;5.95;;;1.63;;
75375;SDS011;63958;52.004;5.908;2022-12-24T14:27:32;6.95;;;1.65;;
75375;SDS011;63958;52.004;5.908;2022-12-24T14:30:15;6.72;;;1.80;;
75375;SDS011;63958;52.004;5.908;2022-12-24T14:32:47;6.70;;;1.65;;
75375;SDS011;63958;52.004;5.908;2022-12-24T14:35:20;7.00;;;2.47;;
75375;SDS011;63958;52.004;5.908;2022-12-24T14:37:56;7.03;;;1.65;;
75375;SDS011;63958;52.004;5.908;2022-12-24T14:40:27;3.38;;;1.52;;
75375;SDS011;63958;52.004;5.908;2022-12-24T14:42:59;6.00;;;1.63;;
75375;SDS011;63958;52.004;5.908;2022-12-24T14:45:39;6.53;;;1.58;;
75375;SDS011;63958;52.004;5.908;2022-12-24T14:48:15;5.30;;;1.80;;
75375;SDS011;63958;52.004;5.908;2022-12-24T14:50:56;6.20;;;1.70;;
75375;SDS011;63958;52.004;5.908;2022-12-24T14:53:36;4.20;;;1.65;;
75375;SDS011;63958;52.004;5.908;2022-12-24T14:56:24;5.68;;;1.88;;
75375;SDS011;63958;52.004;5.908;2022-12-24T14:58:53;5.05;;;2.03;;
75375;SDS011;63958;52.004;5.908;2022-12-24T15:01:27;9.02;;;2.33;;
75375;SDS011;63958;52.004;5.908;2022-12-24T15:04:00;6.10;;;1.67;;
75375;SDS011;63958;52.004;5.908;2022-12-24T15:06:31;7.22;;;2.20;;
75375;SDS011;63958;52.004;5.908;2022-12-24T15:09:04;11.63;;;2.30;;
75375;SDS011;63958;52.004;5.908;2022-12-24T15:11:38;6.80;;;2.50;;
75375;SDS011;63958;52.004;5.908;2022-12-24T15:14:10;5.78;;;1.65;;
75375;SDS011;63958;52.004;5.908;2022-12-24T15:16:46;5.15;;;1.60;;
75375;SDS011;63958;52.004;5.908;2022-12-24T15:19:22;4.28;;;1.30;;
75375;SDS011;63958;52.004;5.908;2022-12-24T15:21:54;2.38;;;1.20;;
75375;SDS011;63958;52.004;5.908;2022-12-24T15:24:24;3.92;;;1.50;;
75375;SDS011;63958;52.004;5.908;2022-12-24T15:26:57;6.90;;;2.10;;
75375;SDS011;63958;52.004;5.908;2022-12-24T15:29:28;6.70;;;2.90;;
75375;SDS011;63958;52.004;5.908;2022-12-24T15:32:01;4.65;;;1.73;;
75375;SDS011;63958;52.004;5.908;2022-12-24T15:34:34;5.65;;;1.75;;
75375;SDS011;63958;52.004;5.908;2022-12-24T15:37:05;3.80;;;2.00;;
75375;SDS011;63958;52.004;5.908;2022-12-24T15:39:39;3.97;;;2.00;;
75375;SDS011;63958;52.004;5.908;2022-12-24T15:42:09;7.28;;;2.35;;